Time;durP1;ratioP1;P1;durP2;ratioP2;P2;SDS_P1;SDS_P2;PMS_P1;PMS_P2;Temp;Humidity;BMP_temperature;BMP_pressure;BME280_temperature;BME280_humidity;BME280_pressure;Samples;Min_cycle;Max_cycle;Signal;HPM_P1;HPM_P2
2024/02/05 00:00:42;;;;;;;1.67;1.40;;;;;;;10.20;100.00;100508.00;4990969;28;20207;-79
2024/02/05 00:03:09;;;;;;;1.70;1.60;;;;;;;10.26;100.00;100502.28;4990124;28;20672;-78
2024/02/05 00:05:36;;;;;;;2.30;1.47;;;;;;;10.23;100.00;100513.97;4991491;28;20210;-79
2024/02/05 00:08:03;;;;;;;1.73;1.40;;;;;;;10.24;100.00;100513.00;4991529;28;20219;-79
2024/02/05 00:10:29;;;;;;;2.63;1.70;;;;;;;10.23;100.00;100500.66;4991689;28;20250;-79
2024/02/05 00:12:56;;;;;;;2.23;1.47;;;;;;;10.21;100.00;100507.88;4993174;28;20215;-78
2024/02/05 00:15:22;;;;;;;2.10;1.70;;;;;;;10.23;100.00;100515.78;4994412;28;20303;-79
2024/02/05 00:17:51;;;;;;;2.27;1.60;;;;;;;10.23;100.00;100516.63;5002404;28;20333;-79
2024/02/05 00:20:18;;;;;;;1.93;1.40;;;;;;;10.25;100.00;100520.03;5014860;28;20199;-79
2024/02/05 00:22:44;;;;;;;1.73;1.43;;;;;;;10.21;100.00;100510.53;5002041;28;20309;-79
2024/02/05 00:25:11;;;;;;;1.67;1.20;;;;;;;10.25;100.00;100520.03;4987098;28;20207;-78
2024/02/05 00:27:38;;;;;;;2.60;1.67;;;;;;;10.23;100.00;100511.31;4995267;28;20236;-78
2024/02/05 00:30:05;;;;;;;2.50;1.10;;;;;;;10.24;100.00;100507.69;4994730;28;20258;-78
2024/02/05 00:32:32;;;;;;;1.43;1.10;;;;;;;10.22;100.00;100520.25;4996828;28;20302;-79
2024/02/05 00:35:00;;;;;;;2.13;1.10;;;;;;;10.22;100.00;100520.25;4996990;28;20204;-79
2024/02/05 00:37:27;;;;;;;2.70;1.53;;;;;;;10.21;100.00;100507.06;4994495;28;20234;-79
2024/02/05 00:39:53;;;;;;;1.63;1.20;;;;;;;10.21;100.00;100512.38;4994615;28;20227;-79
2024/02/05 00:42:20;;;;;;;1.57;1.27;;;;;;;10.24;100.00;100501.50;4995464;28;20214;-79
2024/02/05 00:44:46;;;;;;;2.07;1.00;;;;;;;10.22;100.00;100514.91;4995430;28;20211;-79
2024/02/05 00:47:13;;;;;;;2.20;1.20;;;;;;;10.20;100.00;100514.19;4986782;28;20235;-78
2024/02/05 00:49:39;;;;;;;1.83;1.20;;;;;;;10.21;100.00;100502.56;4995342;28;20242;-79
2024/02/05 00:52:08;;;;;;;1.33;1.10;;;;;;;10.22;100.00;100514.91;4995368;28;20215;-78
2024/02/05 00:54:34;;;;;;;1.53;0.90;;;;;;;10.24;100.00;100512.16;4994826;28;20203;-79
2024/02/05 00:57:01;;;;;;;1.00;0.90;;;;;;;10.20;100.00;100506.19;4994883;28;20231;-78
2024/02/05 00:59:27;;;;;;;1.10;0.90;;;;;;;10.20;100.00;100505.34;4995925;28;20227;-79
2024/02/05 01:01:54;;;;;;;1.00;0.83;;;;;;;10.23;100.00;100494.47;4995633;28;20195;-78
2024/02/05 01:04:20;;;;;;;1.77;0.90;;;;;;;10.22;100.00;100508.72;4994905;28;20218;-79
2024/02/05 01:06:47;;;;;;;1.90;1.00;;;;;;;10.21;100.00;100491.91;4987615;28;20220;-79
2024/02/05 01:09:15;;;;;;;1.07;0.80;;;;;;;10.20;100.00;100529.31;4994561;28;20208;-79
2024/02/05 01:11:41;;;;;;;1.57;1.10;;;;;;;10.17;100.00;100525.00;4995009;28;20200;-79
2024/02/05 01:14:08;;;;;;;0.93;0.87;;;;;;;10.18;100.00;100516.06;4994734;28;20219;-79
2024/02/05 01:16:34;;;;;;;1.90;0.93;;;;;;;10.14;100.00;100527.84;5002784;28;20234;-79
2024/02/05 01:19:01;;;;;;;1.80;0.90;;;;;;;10.15;100.00;100521.56;4994615;28;20235;-78
2024/02/05 01:21:27;;;;;;;0.90;0.90;;;;;;;10.16;100.00;100525.94;4994580;28;20210;-78
2024/02/05 01:23:54;;;;;;;0.83;0.80;;;;;;;10.16;100.00;100528.59;4994464;28;20204;-78
2024/02/05 01:26:22;;;;;;;0.77;0.70;;;;;;;10.15;100.00;100529.56;4994076;28;20219;-78
2024/02/05 01:28:49;;;;;;;1.53;0.90;;;;;;;10.16;100.00;100536.59;4995333;28;20204;-79
2024/02/05 01:31:15;;;;;;;1.10;0.70;;;;;;;10.15;100.00;100536.69;4993647;28;20207;-78
2024/02/05 01:33:42;;;;;;;2.43;1.00;;;;;;;10.16;100.00;100533.94;4994943;28;20212;-78
2024/02/05 01:36:09;;;;;;;1.47;0.70;;;;;;;10.15;100.00;100534.88;4993739;28;20214;-78
2024/02/05 01:38:35;;;;;;;2.17;0.67;;;;;;;10.15;100.00;100534.88;4994246;28;20638;-78
2024/02/05 01:41:02;;;;;;;1.43;1.03;;;;;;;10.17;100.00;100538.28;4993630;28;20219;-79
2024/02/05 01:43:30;;;;;;;1.40;0.93;;;;;;;10.16;100.00;100541.06;4994081;28;20211;-79
2024/02/05 01:45:57;;;;;;;1.97;1.10;;;;;;;10.14;100.00;100535.81;4994105;28;20307;-78
2024/02/05 01:48:29;;;;;;;1.40;0.83;;;;;;;10.14;100.00;100534.97;4994082;28;20212;-77
2024/02/05 01:50:55;;;;;;;2.37;1.00;;;;;;;10.17;100.00;100537.44;4993585;28;20195;-76
2024/02/05 01:53:23;;;;;;;0.80;0.73;;;;;;;10.15;100.00;100534.88;4993872;28;20215;-78
2024/02/05 01:55:51;;;;;;;1.87;1.10;;;;;;;10.17;100.00;100532.97;4994014;28;20222;-78
2024/02/05 01:58:18;;;;;;;4.73;1.57;;;;;;;10.18;100.00;100537.34;4995287;28;20688;-78
2024/02/05 02:00:47;;;;;;;2.20;1.37;;;;;;;10.19;100.00;100530.25;4991877;28;20212;-79
2024/02/05 02:03:15;;;;;;;1.53;1.40;;;;;;;10.19;100.00;100535.56;4994087;28;20214;-78
2024/02/05 02:05:41;;;;;;;2.00;1.30;;;;;;;10.15;100.00;100524.22;4996414;28;20578;-78
2024/02/05 02:08:10;;;;;;;2.37;1.43;;;;;;;10.17;100.00;100524.13;4995967;28;20231;-78
2024/02/05 02:10:37;;;;;;;1.83;1.40;;;;;;;10.16;100.00;100536.59;4994312;28;20208;-78
2024/02/05 02:13:04;;;;;;;3.43;1.57;;;;;;;10.13;100.00;100542.09;4994405;28;20215;-78
2024/02/05 02:15:31;;;;;;;2.93;1.63;;;;;;;10.15;100.00;100531.34;4994119;28;20208;-78
2024/02/05 02:18:03;;;;;;;3.17;1.70;;;;;;;10.17;100.00;100538.28;4997507;28;20224;-78
2024/02/05 02:20:34;;;;;;;2.00;1.70;;;;;;;10.19;100.00;100538.22;4992693;28;20216;-78
2024/02/05 02:23:06;;;;;;;2.80;2.00;;;;;;;10.21;100.00;100523.03;5000420;28;20299;-78
2024/02/05 02:25:39;;;;;;;3.03;2.13;;;;;;;10.17;100.00;100538.28;4990456;28;20212;-78
2024/02/05 02:28:06;;;;;;;2.23;1.60;;;;;;;10.15;100.00;100528.69;4992668;28;20225;-78
2024/02/05 02:30:33;;;;;;;2.70;2.17;;;;;;;10.15;100.00;100534.88;4996956;28;20211;-78
2024/02/05 02:33:07;;;;;;;3.40;2.33;;;;;;;10.14;100.00;100543.81;4991851;28;20200;-78
2024/02/05 02:35:40;;;;;;;3.80;1.87;;;;;;;10.17;100.00;100538.28;4999371;28;20206;-78
2024/02/05 02:38:10;;;;;;;2.50;2.30;;;;;;;10.17;100.00;100538.28;4998276;28;20262;-78
2024/02/05 02:40:40;;;;;;;3.70;2.10;;;;;;;10.15;100.00;100524.22;4993096;28;20231;-78
2024/02/05 02:43:09;;;;;;;3.17;2.00;;;;;;;10.18;100.00;100544.47;4992231;28;20214;-78
2024/02/05 02:45:36;;;;;;;2.17;1.80;;;;;;;10.18;100.00;100542.66;4978844;28;20210;-78
2024/02/05 02:48:02;;;;;;;2.90;1.77;;;;;;;10.19;100.00;100544.41;4993581;28;20804;-78
2024/02/05 02:50:29;;;;;;;1.97;1.63;;;;;;;10.18;100.00;100545.34;4993355;28;20683;-78
2024/02/05 02:52:55;;;;;;;2.43;1.67;;;;;;;10.16;100.00;100541.06;4994149;28;20660;-78
2024/02/05 02:55:22;;;;;;;3.70;1.80;;;;;;;10.16;100.00;100535.72;4993434;28;20204;-79
2024/02/05 02:57:48;;;;;;;2.87;1.87;;;;;;;10.17;100.00;100540.09;4983997;28;20220;-78
2024/02/05 03:00:16;;;;;;;1.67;1.47;;;;;;;10.13;100.00;100534.09;4984258;28;20590;-78
2024/02/05 03:02:43;;;;;;;2.43;1.83;;;;;;;10.13;100.00;100547.41;4993905;28;20665;-78
2024/02/05 03:05:10;;;;;;;3.57;1.70;;;;;;;10.13;100.00;100541.25;4993562;28;20279;-78
2024/02/05 03:07:36;;;;;;;2.67;1.53;;;;;;;10.11;100.00;100546.66;4993069;28;20238;-78
2024/02/05 03:10:05;;;;;;;2.73;1.90;;;;;;;10.07;100.00;100542.47;4992956;28;20215;-78
2024/02/05 03:12:31;;;;;;;2.93;1.90;;;;;;;10.02;100.00;100532.16;4993831;28;20200;-79
2024/02/05 03:14:59;;;;;;;3.77;1.80;;;;;;;10.01;100.00;100541.06;4993219;28;20307;-79
2024/02/05 03:17:26;;;;;;;3.07;1.57;;;;;;;10.02;100.00;100528.63;4993294;28;20224;-79
2024/02/05 03:19:52;;;;;;;4.30;2.37;;;;;;;9.98;100.00;100549.25;4992601;28;20226;-79
2024/02/05 03:22:19;;;;;;;2.00;1.80;;;;;;;9.99;100.00;100544.78;4992663;28;20211;-79
2024/02/05 03:24:46;;;;;;;5.90;2.17;;;;;;;9.98;100.00;100556.38;4993307;28;20203;-79
2024/02/05 03:27:12;;;;;;;3.63;2.00;;;;;;;9.98;100.00;100557.22;4992395;28;20223;-78
2024/02/05 03:29:39;;;;;;;4.43;2.00;;;;;;;9.98;100.00;100543.06;4992994;28;20223;-78
2024/02/05 03:32:08;;;;;;;4.77;2.23;;;;;;;9.96;100.00;100555.59;4992951;28;20199;-78
2024/02/05 03:34:35;;;;;;;4.43;2.50;;;;;;;9.94;100.00;100552.19;4991922;28;20207;-79
2024/02/05 03:37:01;;;;;;;4.10;2.10;;;;;;;9.93;100.00;100569.94;4992442;28;20260;-79
2024/02/05 03:39:28;;;;;;;3.27;1.93;;;;;;;9.93;100.00;100561.97;4992281;28;20227;-79
2024/02/05 03:41:54;;;;;;;4.50;2.13;;;;;;;9.93;100.00;100561.09;4992450;28;20188;-78
2024/02/05 03:44:21;;;;;;;3.73;2.03;;;;;;;9.93;100.00;100561.09;4992104;28;20223;-79
2024/02/05 03:46:47;;;;;;;4.63;2.30;;;;;;;9.93;100.00;100558.44;4992317;28;20223;-79
2024/02/05 03:49:15;;;;;;;4.30;2.37;;;;;;;9.92;100.00;100568.22;4992724;28;20203;-79
2024/02/05 03:51:41;;;;;;;6.73;2.50;;;;;;;9.91;100.00;100558.53;5000706;28;20212;-78
2024/02/05 03:54:08;;;;;;;7.60;3.23;;;;;;;9.91;100.00;100563.00;4991884;28;20223;-78
2024/02/05 03:56:34;;;;;;;5.20;2.93;;;;;;;9.89;100.00;100563.09;4992395;28;20227;-78
2024/02/05 03:59:01;;;;;;;4.80;2.67;;;;;;;9.91;100.00;100573.66;4991353;28;20224;-78
2024/02/05 04:01:27;;;;;;;6.10;3.73;;;;;;;9.93;100.00;100571.75;4991892;28;20222;-78
2024/02/05 04:03:54;;;;;;;6.70;3.63;;;;;;;9.92;100.00;100576.22;4991727;28;20200;-78
2024/02/05 04:06:21;;;;;;;9.97;4.40;;;;;;;9.94;100.00;100568.13;4990989;28;20743;-78
2024/02/05 04:08:48;;;;;;;5.70;3.20;;;;;;;9.93;100.00;100566.44;4992143;28;20666;-79
2024/02/05 04:11:14;;;;;;;5.47;3.23;;;;;;;9.92;100.00;100568.22;4991434;28;20208;-78
2024/02/05 04:13:41;;;;;;;7.87;3.37;;;;;;;9.94;100.00;100578.78;4991484;28;20205;-78
2024/02/05 04:16:13;;;;;;;6.63;3.17;;;;;;;9.93;100.00;100561.97;4990857;28;20218;-78
2024/02/05 04:18:40;;;;;;;9.83;4.03;;;;;;;9.91;100.00;100557.69;4986157;28;20234;-79
2024/02/05 04:21:08;;;;;;;9.57;4.13;;;;;;;9.92;100.00;100580.69;4985383;28;20238;-77
2024/02/05 04:23:35;;;;;;;8.30;4.00;;;;;;;9.90;100.00;100582.56;4996878;28;20211;-78
2024/02/05 04:26:03;;;;;;;10.30;4.27;;;;;;;9.91;100.00;100579.81;4994032;28;20207;-78
2024/02/05 04:28:33;;;;;;;8.83;3.93;;;;;;;9.92;100.00;100583.34;4995759;28;20285;-78
2024/02/05 04:31:00;;;;;;;10.93;4.63;;;;;;;9.92;100.00;100581.53;4998042;28;20203;-79
2024/02/05 04:33:26;;;;;;;10.20;4.37;;;;;;;9.90;100.00;100588.75;4991041;28;20616;-79
2024/02/05 04:35:53;;;;;;;11.40;3.83;;;;;;;9.89;100.00;100583.53;4991540;28;20207;-78
2024/02/05 04:38:19;;;;;;;8.97;3.87;;;;;;;9.89;100.00;100587.03;4998373;28;20226;-78
2024/02/05 04:40:47;;;;;;;11.50;4.43;;;;;;;9.90;100.00;100599.41;4990283;28;20577;-78
2024/02/05 04:43:13;;;;;;;12.30;4.60;;;;;;;9.92;100.00;100589.50;4990843;28;20207;-78
2024/02/05 04:45:40;;;;;;;14.00;5.40;;;;;;;9.94;100.00;100592.09;4987873;28;20223;-78
2024/02/05 04:48:07;;;;;;;15.10;4.93;;;;;;;9.96;100.00;100592.84;4990755;28;20231;-77
2024/02/05 04:50:33;;;;;;;14.27;4.80;;;;;;;9.95;100.00;100578.69;4991034;28;20208;-78
2024/02/05 04:53:00;;;;;;;18.50;5.60;;;;;;;9.95;100.00;100585.81;4989596;28;20208;-78
2024/02/05 04:55:26;;;;;;;14.63;4.73;;;;;;;9.94;100.00;100576.13;4993399;28;20216;-78
2024/02/05 04:57:54;;;;;;;15.80;5.00;;;;;;;9.95;100.00;100581.34;4992426;28;20252;-78
2024/02/05 05:00:21;;;;;;;14.77;5.17;;;;;;;9.94;100.00;100576.97;4985412;28;20239;-78
2024/02/05 05:02:48;;;;;;;19.17;5.07;;;;;;;9.94;100.00;100571.66;4989998;28;20204;-78
2024/02/05 05:05:14;;;;;;;11.43;4.80;;;;;;;9.93;100.00;100577.94;4992664;28;20207;-78
2024/02/05 05:07:41;;;;;;;15.70;5.43;;;;;;;9.94;100.00;100586.75;4989171;28;20226;-78
2024/02/05 05:10:08;;;;;;;17.37;6.23;;;;;;;9.95;100.00;100580.50;5000764;28;20211;-78
2024/02/05 05:12:35;;;;;;;16.10;4.87;;;;;;;9.97;100.00;100594.56;4993868;28;20211;-78
2024/02/05 05:15:03;;;;;;;19.50;5.50;;;;;;;9.98;100.00;100590.94;4994376;28;20286;-77
2024/02/05 05:17:29;;;;;;;17.87;5.03;;;;;;;9.98;100.00;100597.13;4991849;28;20243;-79
2024/02/05 05:19:56;;;;;;;23.27;5.87;;;;;;;10.00;100.00;100584.59;4999716;28;20256;-78
2024/02/05 05:22:22;;;;;;;15.40;5.40;;;;;;;10.02;100.00;100598.66;4993394;28;20211;-78
2024/02/05 05:24:49;;;;;;;14.53;4.83;;;;;;;10.00;100.00;100589.06;4993674;28;20251;-78
2024/02/05 05:27:15;;;;;;;14.77;4.70;;;;;;;10.00;100.00;100589.06;4994774;28;20227;-77
2024/02/05 05:29:42;;;;;;;15.90;5.13;;;;;;;9.99;100.00;100604.16;4998671;28;20219;-78
2024/02/05 05:32:10;;;;;;;11.30;4.20;;;;;;;9.99;100.00;100579.38;4994795;28;20854;-78
2024/02/05 05:34:36;;;;;;;12.60;4.47;;;;;;;9.98;100.00;100602.44;4998052;28;20208;-78
2024/02/05 05:37:03;;;;;;;16.10;4.63;;;;;;;9.96;100.00;100592.84;4993284;28;20223;-78
2024/02/05 05:39:29;;;;;;;12.93;4.43;;;;;;;9.93;100.00;100593.88;4994752;28;20208;-78
2024/02/05 05:41:56;;;;;;;14.87;5.10;;;;;;;9.92;100.00;100599.31;4990134;28;20672;-78
2024/02/05 05:44:22;;;;;;;11.27;4.77;;;;;;;9.92;100.00;100584.19;4991477;28;20219;-79
2024/02/05 05:46:49;;;;;;;13.07;4.80;;;;;;;9.93;100.00;100588.56;4999760;28;20233;-78
2024/02/05 05:49:17;;;;;;;18.67;5.27;;;;;;;9.92;100.00;100589.50;4995311;28;20214;-79
2024/02/05 05:51:43;;;;;;;14.90;5.67;;;;;;;9.92;100.00;100589.50;5000332;28;20200;-81
2024/02/05 05:54:09;;;;;;;13.70;4.80;;;;;;;9.89;100.00;100580.84;4996191;28;20219;-80
2024/02/05 05:56:36;;;;;;;8.47;3.70;;;;;;;9.92;100.00;100592.19;4993709;28;20231;-80
2024/02/05 05:59:02;;;;;;;10.53;3.77;;;;;;;9.87;100.00;100590.75;4994741;28;20225;-79
2024/02/05 06:01:29;;;;;;;12.23;4.27;;;;;;;9.88;100.00;100600.44;4994349;28;20704;-79
2024/02/05 06:03:55;;;;;;;19.30;4.97;;;;;;;9.87;100.00;100596.91;4994020;28;20567;-80
2024/02/05 06:06:23;;;;;;;13.03;4.57;;;;;;;9.87;100.00;100580.09;5002832;28;20554;-80
2024/02/05 06:08:50;;;;;;;12.57;4.80;;;;;;;9.86;100.00;100584.56;4992044;28;20627;-80
2024/02/05 06:11:16;;;;;;;18.77;5.13;;;;;;;9.85;100.00;100590.00;4995544;28;20562;-78
2024/02/05 06:13:43;;;;;;;17.47;5.63;;;;;;;9.88;100.00;100597.78;5000771;28;21434;-78
2024/02/05 06:16:09;;;;;;;16.73;6.13;;;;;;;9.86;100.00;100586.38;4990524;28;20279;-77
2024/02/05 06:18:36;;;;;;;17.50;6.20;;;;;;;9.87;100.00;100583.63;4992478;28;20199;-78
2024/02/05 06:21:02;;;;;;;16.80;5.17;;;;;;;9.90;100.00;100594.06;4991610;28;20274;-79
2024/02/05 06:23:30;;;;;;;19.00;5.67;;;;;;;9.90;100.00;100593.22;4991078;28;20693;-78
2024/02/05 06:25:57;;;;;;;14.10;5.40;;;;;;;9.84;100.00;100588.28;4986301;28;20562;-79
2024/02/05 06:28:23;;;;;;;18.80;7.33;;;;;;;9.87;100.00;100590.75;4991244;28;20294;-79
2024/02/05 06:30:50;;;;;;;22.60;6.27;;;;;;;9.89;100.00;100591.50;4991433;28;20204;-78
2024/02/05 06:33:17;;;;;;;24.77;5.63;;;;;;;9.91;100.00;100595.78;4990889;28;20222;-78
2024/02/05 06:35:43;;;;;;;20.90;6.47;;;;;;;9.88;100.00;100585.31;4991116;28;20243;-80
2024/02/05 06:38:10;;;;;;;25.87;6.20;;;;;;;9.88;100.00;100595.09;4992810;28;20232;-80
2024/02/05 06:40:38;;;;;;;17.60;5.80;;;;;;;9.86;100.00;100589.88;4992852;28;20234;-79
2024/02/05 06:43:06;;;;;;;20.23;6.10;;;;;;;9.85;100.00;100582.03;4993212;28;20237;-78
2024/02/05 06:45:36;;;;;;;18.30;5.27;;;;;;;9.84;100.00;100580.31;4993510;28;20298;-79
2024/02/05 06:48:03;;;;;;;20.93;5.43;;;;;;;9.82;100.00;100591.03;4992447;28;20227;-79
2024/02/05 06:50:30;;;;;;;15.60;4.53;;;;;;;9.80;100.00;100598.25;4992790;28;20208;-79
2024/02/05 06:52:56;;;;;;;23.60;5.83;;;;;;;9.79;100.00;100611.66;4993286;28;20203;-78
2024/02/05 06:55:23;;;;;;;15.60;5.23;;;;;;;9.79;100.00;100620.47;4992909;28;20219;-79
2024/02/05 06:57:50;;;;;;;15.90;5.60;;;;;;;9.79;100.00;100614.31;4993160;28;20228;-78
2024/02/05 07:00:17;;;;;;;21.23;5.63;;;;;;;9.78;100.00;100621.44;4992789;28;20235;-78
2024/02/05 07:02:44;;;;;;;19.03;5.23;;;;;;;9.79;100.00;100609.84;4992858;28;20214;-79
2024/02/05 07:05:11;;;;;;;16.67;5.60;;;;;;;9.78;100.00;100609.94;4992505;28;20212;-79
2024/02/05 07:07:37;;;;;;;15.33;5.83;;;;;;;9.75;100.00;100614.50;4992967;28;20646;-80
2024/02/05 07:10:05;;;;;;;18.27;5.87;;;;;;;9.74;100.00;100622.56;4992723;28;20712;-78
2024/02/05 07:12:31;;;;;;;17.03;5.77;;;;;;;9.70;100.00;100605.91;4992967;28;20261;-79
2024/02/05 07:14:59;;;;;;;18.93;5.13;;;;;;;9.69;100.00;100633.47;4992577;28;20211;-80
2024/02/05 07:17:31;;;;;;;18.33;5.93;;;;;;;9.68;100.00;100634.41;4992765;28;20238;-80
2024/02/05 07:19:59;;;;;;;13.87;5.50;;;;;;;9.69;100.00;100628.13;4992665;28;20198;-79
2024/02/05 07:22:26;;;;;;;21.20;5.63;;;;;;;9.70;100.00;100631.66;4992573;28;20262;-79
2024/02/05 07:24:52;;;;;;;17.97;5.83;;;;;;;9.69;100.00;100637.91;4992239;28;20219;-79
2024/02/05 07:27:21;;;;;;;19.93;5.87;;;;;;;9.70;100.00;100629.84;4991587;28;20227;-79
2024/02/05 07:29:47;;;;;;;15.13;4.90;;;;;;;9.69;100.00;100632.59;4992212;28;20223;-78
2024/02/05 07:32:15;;;;;;;19.80;5.90;;;;;;;9.68;100.00;100652.16;4992032;28;20211;-78
2024/02/05 07:34:41;;;;;;;14.90;5.63;;;;;;;9.65;100.00;100647.91;4992191;28;20671;-79
2024/02/05 07:37:08;;;;;;;10.47;4.30;;;;;;;9.64;100.00;100654.19;4992073;28;20235;-79
2024/02/05 07:39:34;;;;;;;19.70;5.30;;;;;;;9.64;100.00;100667.47;4991980;28;20230;-78
2024/02/05 07:42:01;;;;;;;18.53;6.10;;;;;;;9.64;100.00;100671.94;4992034;28;20850;-79
2024/02/05 07:44:28;;;;;;;12.93;5.07;;;;;;;9.63;100.00;100676.41;4991425;28;20210;-78
2024/02/05 07:46:54;;;;;;;17.63;5.50;;;;;;;9.60;100.00;100681.03;4991825;28;20704;-78
2024/02/05 07:49:22;;;;;;;26.03;5.80;;;;;;;9.57;100.00;100679.41;4991950;28;20211;-79
2024/02/05 07:51:50;;;;;;;20.97;5.73;;;;;;;9.60;100.00;100673.06;4992076;28;20235;-79
2024/02/05 07:54:17;;;;;;;17.00;5.63;;;;;;;9.60;100.00;100663.28;4992290;28;20266;-78
2024/02/05 07:56:44;;;;;;;23.40;6.57;;;;;;;9.59;100.00;100674.00;4992186;28;20227;-79
2024/02/05 07:59:11;;;;;;;19.40;5.03;;;;;;;9.55;100.00;100673.31;4991909;28;20293;-79
2024/02/05 08:01:37;;;;;;;14.70;5.33;;;;;;;9.57;100.00;100683.88;4991561;28;20238;-79
2024/02/05 08:04:04;;;;;;;16.80;5.03;;;;;;;9.56;100.00;100667.06;4992191;28;20210;-79
2024/02/05 08:06:32;;;;;;;16.07;5.13;;;;;;;9.52;100.00;100689.44;4991797;28;20238;-78
2024/02/05 08:08:59;;;;;;;18.27;6.20;;;;;;;9.52;100.00;100688.59;4992051;28;20214;-79
2024/02/05 08:11:25;;;;;;;14.87;5.07;;;;;;;9.55;100.00;100677.78;4992137;28;20211;-78
2024/02/05 08:13:52;;;;;;;17.90;5.23;;;;;;;9.57;100.00;100683.88;4991991;28;20238;-79
2024/02/05 08:16:19;;;;;;;18.07;5.07;;;;;;;9.56;100.00;100674.16;4992147;28;20203;-79
2024/02/05 08:18:46;;;;;;;20.03;5.47;;;;;;;9.57;100.00;100691.84;4992708;28;20218;-78
2024/02/05 08:21:12;;;;;;;21.60;5.77;;;;;;;9.57;100.00;100687.38;4991992;28;20231;-77
2024/02/05 08:23:40;;;;;;;28.37;6.50;;;;;;;9.57;100.00;100679.41;4992619;28;20581;-78
2024/02/05 08:26:08;;;;;;;18.17;6.13;;;;;;;9.56;100.00;100684.81;4991985;28;20242;-78
2024/02/05 08:28:36;;;;;;;20.03;5.83;;;;;;;9.56;100.00;100684.81;4992163;28;20304;-80
2024/02/05 08:31:03;;;;;;;19.20;6.13;;;;;;;9.55;99.46;100683.94;4992040;28;20618;-77
2024/02/05 08:33:30;;;;;;;14.20;4.80;;;;;;;9.57;98.51;100684.72;4991892;28;20289;-78
2024/02/05 08:35:57;;;;;;;17.17;5.43;;;;;;;9.60;97.76;100691.66;4991584;28;20208;-77
2024/02/05 08:38:23;;;;;;;16.53;6.03;;;;;;;9.60;97.27;100697.84;4991238;28;20250;-78
2024/02/05 08:40:51;;;;;;;14.67;5.27;;;;;;;9.63;97.06;100659.59;4994821;28;20242;-78
2024/02/05 08:43:17;;;;;;;14.40;4.70;;;;;;;9.61;96.08;100710.19;4995577;28;20204;-79
2024/02/05 08:45:44;;;;;;;15.87;5.13;;;;;;;9.63;95.16;100705.66;4996183;28;20573;-78
2024/02/05 08:48:10;;;;;;;15.37;4.37;;;;;;;9.64;94.36;100706.50;4995566;28;20238;-78
2024/02/05 08:50:39;;;;;;;16.13;5.20;;;;;;;9.63;94.99;100710.97;4996031;28;20219;-78
2024/02/05 08:53:06;;;;;;;17.77;5.23;;;;;;;9.64;94.65;100709.16;4996269;28;20243;-79
2024/02/05 08:55:33;;;;;;;10.47;4.70;;;;;;;9.65;94.56;100721.50;4996200;28;20210;-78
2024/02/05 08:58:02;;;;;;;18.17;4.60;;;;;;;9.62;93.18;100709.25;4995797;28;20600;-78
2024/02/05 09:00:29;;;;;;;19.13;4.87;;;;;;;9.64;92.66;100720.66;4996134;28;20815;-78
2024/02/05 09:02:56;;;;;;;12.20;4.63;;;;;;;9.67;93.09;100701.84;4996026;28;20203;-78
2024/02/05 09:05:23;;;;;;;22.03;4.90;;;;;;;9.67;92.01;100716.97;4996275;28;20233;-79
2024/02/05 09:07:50;;;;;;;19.27;4.93;;;;;;;9.65;92.19;100717.06;4995765;28;20223;-78
2024/02/05 09:10:19;;;;;;;17.70;5.47;;;;;;;9.65;92.14;100719.72;4994947;28;20633;-78
2024/02/05 09:12:45;;;;;;;14.40;4.80;;;;;;;9.67;91.57;100712.47;4995486;28;20211;-77
2024/02/05 09:15:14;;;;;;;19.33;4.90;;;;;;;9.69;91.66;100701.75;4994863;28;20210;-77
2024/02/05 09:17:40;;;;;;;13.80;5.53;;;;;;;9.68;91.12;100714.19;4995079;28;20711;-78
2024/02/05 09:20:08;;;;;;;13.87;4.83;;;;;;;9.68;91.42;100708.00;4995211;28;20355;-77
2024/02/05 09:22:34;;;;;;;17.73;4.80;;;;;;;9.65;90.22;100722.38;4995817;28;20223;-77
2024/02/05 09:25:00;;;;;;;19.53;5.30;;;;;;;9.68;89.96;100726.63;4995788;28;20208;-76
2024/02/05 09:27:29;;;;;;;14.00;4.93;;;;;;;9.67;90.08;100720.44;4996736;28;20264;-77
2024/02/05 09:29:55;;;;;;;19.00;5.10;;;;;;;9.71;89.16;100729.13;4997060;28;20229;-77
2024/02/05 09:32:23;;;;;;;13.33;4.27;;;;;;;9.70;89.59;100736.22;4996716;28;20211;-78
2024/02/05 09:34:50;;;;;;;20.53;6.53;;;;;;;9.74;88.58;100726.28;4996431;28;20208;-77
2024/02/05 09:37:16;;;;;;;14.67;4.93;;;;;;;9.73;88.08;100724.56;4996450;28;20250;-78
2024/02/05 09:39:42;;;;;;;17.30;5.83;;;;;;;9.72;89.02;100729.03;4996396;28;20219;-77
2024/02/05 09:42:12;;;;;;;18.27;4.97;;;;;;;9.72;88.68;100731.69;4996900;28;20216;-77
2024/02/05 09:44:39;;;;;;;18.97;5.40;;;;;;;9.73;88.52;100719.25;4996848;28;20346;-77
2024/02/05 09:47:07;;;;;;;19.97;5.20;;;;;;;9.72;88.26;100734.34;4997189;28;20227;-77
2024/02/05 09:49:36;;;;;;;19.93;5.43;;;;;;;9.73;88.60;100730.75;4996851;28;20214;-77
2024/02/05 09:52:04;;;;;;;12.50;4.10;;;;;;;9.74;88.21;100748.41;4996279;28;20205;-77
2024/02/05 09:54:31;;;;;;;13.83;4.60;;;;;;;9.75;88.09;100744.81;4996628;28;20223;-78
2024/02/05 09:56:58;;;;;;;16.47;5.23;;;;;;;9.75;87.90;100747.47;4996389;28;20242;-76
2024/02/05 09:59:25;;;;;;;18.10;4.13;;;;;;;9.77;88.16;100738.53;4996714;28;20208;-79
2024/02/05 10:01:52;;;;;;;13.33;4.40;;;;;;;9.75;88.35;100739.50;4997693;28;20235;-79
2024/02/05 10:04:20;;;;;;;10.67;4.67;;;;;;;9.77;87.23;100743.88;4997157;28;20212;-79
2024/02/05 10:06:52;;;;;;;15.33;5.17;;;;;;;9.78;87.45;100756.22;4997345;28;20238;-78
2024/02/05 10:09:22;;;;;;;13.33;4.93;;;;;;;9.80;87.78;100749.00;4997546;28;20266;-78
2024/02/05 10:11:50;;;;;;;15.47;4.93;;;;;;;9.79;86.85;100748.16;4997520;28;20207;-77
2024/02/05 10:14:17;;;;;;;18.40;5.10;;;;;;;9.81;87.02;100732.97;4997619;28;20791;-76
2024/02/05 10:16:45;;;;;;;16.23;4.40;;;;;;;9.82;86.81;100736.47;4997823;28;20228;-77
2024/02/05 10:19:12;;;;;;;15.20;5.60;;;;;;;9.84;86.81;100745.22;4999193;28;20208;-78
2024/02/05 10:21:39;;;;;;;18.33;5.07;;;;;;;9.86;87.42;100740.66;4998994;28;20232;-79
2024/02/05 10:24:13;;;;;;;17.10;4.77;;;;;;;9.89;87.34;100751.13;4998281;28;20632;-77
2024/02/05 10:26:40;;;;;;;16.13;4.20;;;;;;;9.92;87.09;100741.16;4997079;28;20215;-76
2024/02/05 10:29:07;;;;;;;13.80;4.40;;;;;;;9.91;86.78;100752.75;4997169;28;20579;-78
2024/02/05 10:31:34;;;;;;;16.70;4.90;;;;;;;9.91;87.46;100744.75;4996214;28;20215;-77
2024/02/05 10:34:01;;;;;;;17.80;5.13;;;;;;;9.93;86.38;100744.66;4997129;28;20219;-77
2024/02/05 10:36:27;;;;;;;24.57;6.07;;;;;;;9.93;85.42;100742.00;4998080;28;20257;-79
2024/02/05 10:38:55;;;;;;;15.03;5.57;;;;;;;9.96;86.03;100744.50;5000213;28;20212;-77
2024/02/05 10:41:23;;;;;;;15.23;4.93;;;;;;;9.97;86.54;100747.06;4999095;28;21027;-79
2024/02/05 10:43:50;;;;;;;19.97;6.33;;;;;;;9.98;86.87;100753.25;5000095;28;20205;-79
2024/02/05 10:46:17;;;;;;;14.43;4.27;;;;;;;10.02;85.93;100733.50;4999563;28;20215;-78
2024/02/05 10:48:45;;;;;;;18.03;5.03;;;;;;;10.02;86.10;100741.47;4999997;28;20215;-78
2024/02/05 10:51:13;;;;;;;14.70;4.63;;;;;;;10.03;86.50;100733.38;5000184;28;20270;-78
2024/02/05 10:53:43;;;;;;;15.60;5.30;;;;;;;10.03;85.67;100724.56;5000222;28;20308;-79
2024/02/05 10:56:12;;;;;;;15.70;4.07;;;;;;;10.04;85.10;100720.94;4997168;28;20208;-78
2024/02/05 10:58:41;;;;;;;20.70;4.63;;;;;;;10.00;85.46;100730.06;4997136;28;20212;-78
2024/02/05 11:01:09;;;;;;;12.13;4.60;;;;;;;9.99;84.74;100734.53;4995222;28;20756;-77
2024/02/05 11:03:37;;;;;;;15.90;4.33;;;;;;;10.02;84.46;100722.84;4995578;28;20219;-76
2024/02/05 11:06:08;;;;;;;23.60;5.13;;;;;;;10.03;84.44;100705.94;4997076;28;20203;-79
2024/02/05 11:08:38;;;;;;;13.17;4.83;;;;;;;10.04;85.50;100716.47;4997604;28;20202;-79
2024/02/05 11:11:09;;;;;;;15.47;4.77;;;;;;;10.06;85.62;100711.06;4997330;28;20207;-77
2024/02/05 11:13:44;;;;;;;15.67;4.60;;;;;;;10.08;86.47;100711.81;4997585;28;20254;-78
2024/02/05 11:16:13;;;;;;;19.73;4.97;;;;;;;10.11;86.21;100711.66;4997485;28;20596;-78
2024/02/05 11:18:45;;;;;;;17.53;6.70;;;;;;;10.11;86.28;100701.00;4998205;28;20208;-79